Aérodrome :
LOGIN :

S'inscrire | Disclaimer

   EN    FR    IT 

 










Légende :    VFR   VFR Marginal   IFR   IFR Intensif   IFR Très Intensif
Visi : 
Plafond : 
>= 8 km
>= 3000ft
5 à 8 km
1000 à 3000 ft
1500m à 5 km
500 à 1000 ft
800 à 1500m
200 à 500 ft
< 800m
< 200 ft
Symboles :   Orages  Brouillard  Fortes neiges  Fortes précipitations  Vent > 20 kt
SIGMETs :   Divers  Orages  Givrage  Turbulence  Onde Orograph.  Cendres Volcan.







- Altitude de l'aérodrome : 267 ft


EGDR - Culdrose Navy

DERNIER METAR :
  • 171650Z AUTO 22014KT 9999 // BKN006/// 17/16 Q1012

METARs EXPIRÉS :
  • 171550Z AUTO 22016KT 9999 // BKN008/// BKN015/// 17/16 Q1013
  • 171450Z 23014KT 9999 SCT006 BKN012 18/16 Q1013 YLO1 TEMPO SCT004 YLO2

TAF TAF EGDR
Valide du 17 à 12h jusqu'au 17 à 21h UTC


171047Z 1712/1721 21015KT 9999 SCT008 BKN010
PROB40
TEMPO 1712/1718 7000 SHRA SCT008
TEMPO 1712/1721 9999 SCT025
PROB30
TEMPO 1712/1716 5000 -RADZ SCT006 BKN010
Pas de NOTAMs connus pour ce terrain.



MET'MAP, la Météo Aéronautique d'un coup d'oeil ! - Copyright ORBIFLY Décembre 2007 - Disclaimer

ORBIFLY MET'MAP TEAM :

Programmation & Développement : Alexandra Zaïnal
Conception & Développement : Baudouin d'Aumeries
Co-Programmation & Développement : Marc-Olivier Méhu
Soutien technique & logistique : Manuel Goepfert

Contact : metmap@orbifly.com




SOURCES & CREDITS :

   NOAA